createdAt,value
2022-09-23T00:11:34.345Z,11.04
2022-09-23T00:14:00.975Z,11.02
2022-09-23T00:16:33.805Z,11.01
2022-09-23T00:19:01.832Z,11.02
2022-09-23T00:21:28.645Z,10.99
2022-09-23T00:23:55.212Z,10.94
2022-09-23T00:26:22.944Z,10.98
2022-09-23T00:28:49.832Z,10.96
2022-09-23T00:31:19.532Z,10.96
2022-09-23T00:33:46.008Z,10.94
2022-09-23T00:36:17.970Z,10.98
2022-09-23T00:38:45.066Z,10.97
2022-09-23T00:41:12.306Z,11.00
2022-09-23T00:43:46.704Z,10.99
2022-09-23T00:46:18.166Z,10.96
2022-09-23T00:48:45.144Z,10.99
2022-09-23T00:51:17.739Z,10.99
2022-09-23T00:53:46.159Z,10.95
2022-09-23T00:56:13.573Z,10.93
2022-09-23T00:58:42.198Z,10.93
2022-09-23T01:01:08.869Z,10.96
2022-09-23T01:03:35.552Z,10.99
2022-09-23T01:06:03.217Z,10.96
2022-09-23T01:08:29.800Z,10.96
2022-09-23T01:11:10.512Z,10.99
2022-09-23T01:13:55.778Z,10.93
2022-09-23T01:16:37.766Z,10.87
2022-09-23T01:19:27.610Z,10.82
2022-09-23T01:22:11.948Z,10.80
2022-09-23T01:25:19.925Z,10.76
2022-09-23T01:28:00.928Z,10.74
2022-09-23T01:30:33.147Z,10.74
2022-09-23T01:33:08.755Z,10.69
2022-09-23T01:36:04.368Z,10.68
2022-09-23T01:38:58.325Z,10.65
2022-09-23T01:41:49.187Z,10.58
2022-09-23T01:44:38.399Z,10.49
2022-09-23T01:47:10.910Z,10.46
2022-09-23T01:49:50.758Z,10.46
2022-09-23T01:52:26.163Z,10.45
2022-09-23T01:55:12.837Z,10.40
2022-09-23T01:57:43.681Z,10.33
2022-09-23T02:00:15.245Z,10.25
2022-09-23T02:02:52.397Z,10.26
2022-09-23T02:05:25.959Z,10.22
2022-09-23T02:08:13.482Z,10.22
2022-09-23T02:10:50.465Z,10.25
2022-09-23T02:13:24.518Z,10.27
2022-09-23T02:15:54.754Z,10.25
2022-09-23T02:18:31.778Z,10.27
2022-09-23T02:21:03.237Z,10.25
2022-09-23T02:23:43.737Z,10.26
2022-09-23T02:26:41.072Z,10.26
2022-09-23T02:29:19.214Z,10.29
2022-09-23T02:31:56.367Z,10.27
2022-09-23T02:34:45.876Z,10.30
2022-09-23T02:37:43.464Z,10.32
2022-09-23T02:40:13.129Z,10.34
2022-09-23T02:43:10.025Z,10.34
2022-09-23T02:45:39.095Z,10.35
2022-09-23T02:48:09.323Z,10.35
2022-09-23T02:50:36.877Z,10.33
2022-09-23T02:53:04.639Z,10.35
2022-09-23T02:55:34.016Z,10.34
2022-09-23T02:58:01.967Z,10.33
2022-09-23T03:00:59.748Z,10.36
2022-09-23T03:03:47.004Z,10.34
2022-09-23T03:06:25.264Z,10.32
2022-09-23T03:08:58.011Z,10.27
2022-09-23T03:11:24.655Z,10.25
2022-09-23T03:14:18.813Z,10.27
2022-09-23T03:16:54.389Z,10.25
2022-09-23T03:19:20.768Z,10.25
2022-09-23T03:22:07.411Z,10.24
2022-09-23T03:24:34.618Z,10.23
2022-09-23T03:27:04.458Z,10.21
2022-09-23T03:29:32.385Z,10.20
2022-09-23T03:31:59.821Z,10.21
2022-09-23T03:34:28.673Z,10.25
2022-09-23T03:37:07.452Z,10.24
2022-09-23T03:39:40.077Z,10.26
2022-09-23T03:42:19.167Z,10.21
2022-09-23T03:44:47.218Z,10.25
2022-09-23T03:47:16.094Z,10.28
2022-09-23T03:49:44.765Z,10.26
2022-09-23T03:52:11.379Z,10.27
2022-09-23T03:54:37.845Z,10.25
2022-09-23T03:57:04.588Z,10.29
2022-09-23T03:59:31.417Z,10.28
2022-09-23T04:01:59.392Z,10.26
2022-09-23T04:04:27.449Z,10.23
2022-09-23T04:06:56.962Z,10.23
2022-09-23T04:09:23.962Z,10.24
2022-09-23T04:11:51.240Z,10.20
2022-09-23T04:14:18.559Z,10.12
2022-09-23T04:16:45.803Z,10.17
2022-09-23T04:19:13.192Z,10.14
2022-09-23T04:21:42.873Z,10.11
2022-09-23T04:24:10.546Z,10.05
2022-09-23T04:26:38.094Z,10.03
2022-09-23T04:29:05.198Z,10.00
2022-09-23T04:31:32.783Z,9.93
2022-09-23T04:33:59.462Z,9.87
2022-09-23T04:36:26.424Z,9.78
2022-09-23T04:38:52.862Z,9.70
2022-09-23T04:41:19.481Z,9.62
2022-09-23T04:43:45.981Z,9.52
2022-09-23T04:46:13.769Z,9.37
2022-09-23T04:48:43.563Z,9.11
2022-09-23T04:51:18.528Z,8.96
2022-09-23T04:53:46.779Z,8.76
2022-09-23T04:56:21.648Z,8.65
2022-09-23T04:58:48.367Z,8.55
2022-09-23T05:01:26.604Z,8.43
2022-09-23T05:03:54.694Z,8.35
2022-09-23T05:06:21.590Z,8.29
2022-09-23T05:08:52.903Z,8.23
2022-09-23T05:11:20.223Z,8.15
2022-09-23T05:13:47.970Z,8.17
2022-09-23T05:16:16.512Z,8.08
2022-09-23T05:18:44.267Z,8.07
2022-09-23T05:21:12.226Z,8.01
2022-09-23T05:23:40.448Z,8.04
2022-09-23T05:26:11.106Z,8.00
2022-09-23T05:28:39.341Z,7.94
2022-09-23T05:31:20.135Z,7.91
2022-09-23T05:33:52.500Z,7.96
2022-09-23T05:36:21.088Z,7.93
2022-09-23T05:38:49.716Z,7.97
2022-09-23T05:41:17.397Z,8.00
2022-09-23T05:43:43.919Z,7.99
2022-09-23T05:46:12.505Z,8.06
2022-09-23T05:48:40.121Z,8.11
2022-09-23T05:51:10.175Z,8.15
2022-09-23T05:53:37.023Z,8.25
2022-09-23T05:58:31.077Z,8.31
2022-09-23T06:00:57.611Z,8.36
2022-09-23T06:03:25.210Z,8.40
2022-09-23T06:05:55.520Z,8.40
2022-09-23T06:08:23.012Z,8.46
2022-09-23T06:10:54.414Z,8.52
2022-09-23T06:13:21.073Z,8.62
2022-09-23T06:15:47.535Z,8.71
2022-09-23T06:18:13.943Z,8.79
2022-09-23T06:20:40.359Z,8.82
2022-09-23T06:23:10.686Z,8.82
2022-09-23T06:25:40.888Z,8.89
2022-09-23T06:28:10.680Z,8.95
2022-09-23T06:30:37.191Z,8.99
2022-09-23T06:33:03.632Z,9.04
2022-09-23T06:35:32.422Z,9.11
2022-09-23T06:37:59.241Z,9.17
2022-09-23T06:40:25.710Z,9.19
2022-09-23T06:42:59.537Z,9.14
2022-09-23T06:45:27.110Z,9.18
2022-09-23T06:47:56.206Z,9.22
2022-09-23T06:50:24.028Z,9.29
2022-09-23T06:52:55.858Z,9.37
2022-09-23T06:55:27.117Z,9.43
2022-09-23T06:57:54.800Z,9.50
2022-09-23T07:00:21.369Z,9.58
2022-09-23T07:02:47.978Z,9.66
2022-09-23T07:05:16.393Z,9.75
2022-09-23T07:07:45.672Z,9.77
2022-09-23T07:10:12.468Z,9.65
2022-09-23T07:12:38.900Z,9.59
2022-09-23T07:15:05.848Z,9.58
2022-09-23T07:17:32.256Z,9.60
2022-09-23T07:19:58.636Z,9.61
2022-09-23T07:22:25.637Z,9.70
2022-09-23T07:24:55.947Z,9.74
2022-09-23T07:27:26.957Z,9.79
2022-09-23T07:29:54.007Z,9.77
2022-09-23T07:32:21.981Z,9.84
2022-09-23T07:34:48.743Z,9.92
2022-09-23T07:37:16.389Z,9.99
2022-09-23T07:39:43.172Z,10.04
2022-09-23T07:42:13.073Z,10.08
2022-09-23T07:44:39.872Z,10.11
2022-09-23T07:47:06.288Z,10.13
2022-09-23T07:49:34.720Z,10.15
2022-09-23T07:52:01.149Z,10.20
2022-09-23T07:54:29.687Z,10.24
2022-09-23T07:56:56.684Z,10.31
2022-09-23T07:59:23.351Z,10.36
2022-09-23T08:01:52.660Z,10.41
2022-09-23T08:04:30.448Z,10.43
2022-09-23T08:07:02.419Z,10.46
2022-09-23T08:09:34.428Z,10.46
2022-09-23T08:12:01.351Z,10.51
2022-09-23T08:14:27.779Z,10.54
2022-09-23T08:16:54.208Z,10.51
2022-09-23T08:19:20.857Z,10.51
2022-09-23T08:21:47.410Z,10.56
2022-09-23T08:24:16.855Z,10.61
2022-09-23T08:26:43.803Z,10.67
2022-09-23T08:29:15.682Z,10.72
2022-09-23T08:31:42.237Z,10.77
2022-09-23T08:34:08.735Z,10.82
2022-09-23T08:36:35.464Z,10.87
2022-09-23T08:39:03.436Z,10.91
2022-09-23T08:41:38.476Z,10.93
2022-09-23T08:44:11.946Z,10.95
2022-09-23T08:46:44.301Z,10.99
2022-09-23T08:49:14.384Z,10.99
2022-09-23T08:51:46.859Z,11.02
2022-09-23T08:54:14.387Z,11.07
2022-09-23T08:56:43.421Z,11.15
2022-09-23T08:59:28.989Z,11.18
2022-09-23T09:02:00.544Z,11.22
2022-09-23T09:04:35.851Z,11.30
2022-09-23T09:07:34.762Z,11.32
2022-09-23T09:10:15.885Z,11.36
2022-09-23T09:12:45.115Z,11.38
2022-09-23T09:15:18.957Z,11.44
2022-09-23T09:18:10.033Z,11.47
2022-09-23T09:21:11.977Z,11.57
2022-09-23T09:23:57.606Z,11.67
2022-09-23T09:26:29.359Z,11.66
2022-09-23T09:29:31.291Z,11.70
2022-09-23T09:31:59.848Z,11.75
2022-09-23T09:34:36.604Z,11.76
2022-09-23T09:37:07.538Z,11.88
2022-09-23T09:39:34.963Z,11.95
2022-09-23T09:42:01.756Z,12.04
2022-09-23T09:44:40.743Z,12.08
2022-09-23T09:47:20.744Z,12.16
2022-09-23T09:50:01.822Z,12.21
2022-09-23T09:52:29.671Z,12.29
2022-09-23T09:55:17.206Z,12.39
2022-09-23T09:57:52.069Z,12.48
2022-09-23T10:00:25.626Z,12.58
2022-09-23T10:02:53.005Z,12.70
2022-09-23T10:05:28.274Z,12.79
2022-09-23T10:07:54.800Z,12.89
2022-09-23T10:10:33.647Z,12.95
2022-09-23T10:13:14.956Z,13.05
2022-09-23T10:15:44.966Z,13.16
2022-09-23T10:18:20.753Z,13.25
2022-09-23T10:20:48.053Z,13.33
2022-09-23T10:23:25.015Z,13.41
2022-09-23T10:26:06.088Z,13.51
2022-09-23T10:28:45.639Z,13.59
2022-09-23T10:31:14.239Z,13.70
2022-09-23T10:33:49.367Z,13.76
2022-09-23T10:36:17.705Z,13.88
2022-09-23T10:38:44.763Z,13.98
2022-09-23T10:41:45.949Z,14.06
2022-09-23T10:44:51.586Z,14.16
2022-09-23T10:47:35.650Z,14.29
2022-09-23T10:50:11.271Z,14.39
2022-09-23T10:52:55.934Z,14.49
2022-09-23T10:55:40.846Z,14.61
2022-09-23T10:58:25.496Z,14.70
2022-09-23T11:01:04.146Z,14.82
2022-09-23T11:03:59.771Z,14.91
2022-09-23T11:06:44.617Z,15.04
2022-09-23T11:09:23.667Z,15.16
2022-09-23T11:12:12.360Z,15.23
2022-09-23T11:15:04.144Z,15.26
2022-09-23T11:17:42.688Z,15.30
2022-09-23T11:20:31.105Z,15.36
2022-09-23T11:23:18.576Z,15.44
2022-09-23T11:26:20.265Z,15.51
2022-09-23T11:28:54.986Z,15.57
2022-09-23T11:31:29.923Z,15.65
2022-09-23T11:34:17.387Z,15.76
2022-09-23T11:36:51.216Z,15.89
2022-09-23T11:39:24.084Z,16.00
2022-09-23T11:41:54.075Z,16.09
2022-09-23T11:44:28.353Z,16.18
2022-09-23T11:47:01.812Z,16.24
2022-09-23T11:49:35.183Z,16.27
2022-09-23T11:52:20.514Z,16.25
2022-09-23T11:54:49.862Z,16.19
2022-09-23T11:57:26.489Z,16.16
2022-09-23T12:00:06.025Z,16.19
2022-09-23T12:02:39.807Z,16.30
2022-09-23T12:05:16.585Z,16.46
2022-09-23T12:08:10.927Z,16.50
2022-09-23T12:10:45.789Z,16.51
2022-09-23T12:13:20.847Z,16.58
2022-09-23T12:16:11.297Z,16.64
2022-09-23T12:19:07.249Z,16.71
2022-09-23T12:22:24.661Z,16.80
2022-09-23T12:24:57.465Z,16.81
2022-09-23T12:27:34.737Z,16.83
2022-09-23T12:30:12.694Z,16.90
2022-09-23T12:32:39.243Z,16.96
2022-09-23T12:35:05.920Z,17.04
2022-09-23T12:37:37.929Z,17.13
2022-09-23T12:40:21.449Z,17.21
2022-09-23T12:42:48.313Z,17.32
2022-09-23T12:45:31.237Z,17.42
2022-09-23T12:48:17.844Z,17.46
2022-09-23T12:50:53.525Z,17.46
2022-09-23T12:53:53.104Z,17.50
2022-09-23T12:56:39.664Z,17.52
2022-09-23T12:59:28.743Z,17.53
2022-09-23T13:01:55.477Z,17.57
2022-09-23T13:05:01.757Z,17.66
2022-09-23T13:07:31.957Z,17.72
2022-09-23T13:10:18.569Z,17.76
2022-09-23T13:12:46.065Z,17.84
2022-09-23T13:15:18.116Z,17.91
2022-09-23T13:17:44.829Z,17.91
2022-09-23T13:20:20.476Z,17.89
2022-09-23T13:22:49.915Z,17.94
2022-09-23T13:25:20.452Z,17.93
2022-09-23T13:27:49.982Z,17.91
2022-09-23T13:30:25.906Z,17.88
2022-09-23T13:33:12.734Z,17.89
2022-09-23T13:35:42.039Z,17.88
2022-09-23T13:38:28.001Z,17.90
2022-09-23T13:41:14.596Z,17.98
2022-09-23T13:43:48.023Z,18.08
2022-09-23T13:46:20.504Z,18.11
2022-09-23T13:48:49.072Z,18.13
2022-09-23T13:51:31.669Z,18.18
2022-09-23T13:53:59.579Z,18.26
2022-09-23T13:56:28.901Z,18.32
2022-09-23T13:59:01.819Z,18.44
2022-09-23T14:01:33.754Z,18.49
2022-09-23T14:04:02.101Z,18.53
2022-09-23T14:06:31.752Z,18.55
2022-09-23T14:09:00.259Z,18.54
2022-09-23T14:11:32.954Z,18.49
2022-09-23T14:14:00.744Z,18.45
2022-09-23T14:16:27.934Z,18.48
2022-09-23T14:19:00.455Z,18.61
2022-09-23T14:21:38.414Z,18.76
2022-09-23T14:24:29.545Z,18.84
2022-09-23T14:27:08.218Z,18.97
2022-09-23T14:29:40.178Z,18.97
2022-09-23T14:32:20.813Z,18.95
2022-09-23T14:34:50.781Z,18.99
2022-09-23T14:37:45.973Z,19.07
2022-09-23T14:40:24.848Z,19.08
2022-09-23T14:43:24.092Z,19.02
2022-09-23T14:45:59.870Z,18.98
2022-09-23T14:48:35.976Z,18.99
2022-09-23T14:51:04.561Z,18.98
2022-09-23T14:53:34.320Z,18.93
2022-09-23T14:56:06.856Z,18.84
2022-09-23T14:58:55.224Z,18.74
2022-09-23T15:01:30.869Z,18.64
2022-09-23T15:04:14.148Z,18.53
2022-09-23T15:06:45.045Z,18.41
2022-09-23T15:09:17.493Z,18.34
2022-09-23T15:11:44.034Z,18.28
2022-09-23T15:14:35.951Z,18.21
2022-09-23T15:16:56.992Z,18.17
2022-09-23T15:19:23.441Z,18.13
2022-09-23T15:21:52.631Z,18.10
2022-09-23T15:24:35.404Z,18.08
2022-09-23T15:27:02.240Z,18.06
2022-09-23T15:29:28.982Z,18.02
2022-09-23T15:31:55.490Z,18.02
2022-09-23T15:34:21.959Z,17.98
2022-09-23T15:36:49.499Z,17.95
2022-09-23T15:39:15.883Z,17.94
2022-09-23T15:41:43.412Z,17.94
2022-09-23T15:44:14.495Z,17.92
2022-09-23T15:46:51.740Z,17.86
2022-09-23T15:49:29.083Z,17.79
2022-09-23T15:51:59.120Z,17.75
2022-09-23T15:54:25.630Z,17.70
2022-09-23T15:56:52.025Z,17.64
2022-09-23T15:59:19.061Z,17.56
2022-09-23T16:01:45.830Z,17.50
2022-09-23T16:04:15.347Z,17.45
2022-09-23T16:06:45.258Z,17.42
2022-09-23T16:09:13.448Z,17.39
2022-09-23T16:11:44.053Z,17.33
2022-09-23T16:14:14.113Z,17.30
2022-09-23T16:16:42.067Z,17.25
2022-09-23T16:19:08.587Z,17.21
2022-09-23T16:21:34.999Z,17.16
2022-09-23T16:24:01.557Z,17.12
2022-09-23T16:26:31.192Z,17.07
2022-09-23T16:28:58.540Z,17.01
2022-09-23T16:31:26.592Z,16.97
2022-09-23T16:33:53.369Z,16.92
2022-09-23T16:36:28.736Z,16.87
2022-09-23T16:38:55.575Z,16.81
2022-09-23T16:41:27.548Z,16.73
2022-09-23T16:43:53.936Z,16.66
2022-09-23T16:46:20.892Z,16.60
2022-09-23T16:48:52.329Z,16.53
2022-09-23T16:51:21.706Z,16.46
2022-09-23T16:53:49.188Z,16.40
2022-09-23T16:56:16.867Z,16.34
2022-09-23T16:58:43.900Z,16.29
2022-09-23T17:01:49.313Z,16.19
2022-09-23T17:04:16.810Z,16.14
2022-09-23T17:06:50.757Z,16.06
2022-09-23T17:09:19.757Z,15.99
2022-09-23T17:11:48.117Z,15.93
2022-09-23T17:14:15.540Z,15.87
2022-09-23T17:16:42.119Z,15.81
2022-09-23T17:19:10.542Z,15.77
2022-09-23T17:21:37.082Z,15.71
2022-09-23T17:24:03.847Z,15.65
2022-09-23T17:26:30.333Z,15.59
2022-09-23T17:28:58.651Z,15.53
2022-09-23T17:31:25.864Z,15.50
2022-09-23T17:33:52.749Z,15.46
2022-09-23T17:36:20.059Z,15.42
2022-09-23T17:38:48.205Z,15.38
2022-09-23T17:41:15.415Z,15.35
2022-09-23T17:43:41.883Z,15.33
2022-09-23T18:38:35.972Z,14.64
2022-09-23T18:41:37.800Z,14.65
2022-09-23T18:44:08.012Z,14.63
2022-09-23T18:46:37.357Z,14.56
2022-09-23T18:52:07.361Z,14.53
2022-09-23T18:54:34.102Z,14.52
2022-09-23T18:57:01.198Z,14.52
2022-09-23T18:59:29.531Z,14.51
2022-09-23T19:01:56.706Z,14.51
2022-09-23T19:04:24.889Z,14.50
2022-09-23T19:06:51.866Z,14.54
2022-09-23T19:09:18.837Z,14.52
2022-09-23T19:11:45.707Z,14.49
2022-09-23T19:14:12.579Z,14.48
2022-09-23T19:16:40.429Z,14.46
2022-09-23T19:19:07.643Z,14.48
2022-09-23T19:21:34.798Z,14.47
2022-09-23T19:24:04.312Z,14.43
2022-09-23T19:26:33.818Z,14.42
2022-09-23T19:29:01.281Z,14.42
2022-09-23T19:31:30.399Z,14.45
2022-09-23T19:33:59.956Z,14.40
2022-09-23T19:36:33.654Z,14.38
2022-09-23T19:39:03.269Z,14.38
2022-09-23T19:41:35.243Z,14.32
2022-09-23T19:44:03.184Z,14.30
2022-09-23T19:46:31.143Z,14.33
2022-09-23T19:48:58.042Z,14.31
2022-09-23T19:51:24.473Z,14.31
2022-09-23T19:53:50.992Z,14.32
2022-09-23T19:56:18.060Z,14.31
2022-09-23T19:58:51.048Z,14.30
2022-09-23T20:01:18.342Z,14.26
2022-09-23T20:03:45.281Z,14.25
2022-09-23T20:06:11.748Z,14.25
2022-09-23T20:08:38.554Z,14.22
2022-09-23T20:11:11.557Z,14.19
2022-09-23T20:13:39.279Z,14.15
2022-09-23T20:16:10.353Z,14.16
2022-09-23T20:18:38.017Z,14.09
2022-09-23T20:21:05.762Z,14.07
2022-09-23T20:23:32.402Z,14.06
2022-09-23T20:26:18.636Z,14.02
2022-09-23T20:28:45.170Z,13.99
2022-09-23T20:31:12.345Z,13.97
2022-09-23T20:33:41.407Z,13.96
2022-09-23T20:36:09.107Z,13.93
2022-09-23T20:38:36.380Z,13.91
2022-09-23T20:41:03.150Z,13.91
2022-09-23T20:43:32.196Z,13.88
2022-09-23T20:45:58.620Z,13.84
2022-09-23T20:48:25.479Z,13.78
2022-09-23T20:50:51.904Z,13.76
2022-09-23T20:53:19.451Z,13.75
2022-09-23T20:55:53.853Z,13.76
2022-09-23T20:58:26.863Z,13.75
2022-09-23T21:00:54.375Z,13.74
2022-09-23T21:03:20.917Z,13.69
2022-09-23T21:05:47.825Z,13.64
2022-09-23T21:08:15.784Z,13.66
2022-09-23T21:10:42.238Z,13.62
2022-09-23T21:13:09.043Z,13.58
2022-09-23T21:15:35.513Z,13.58
2022-09-23T21:18:01.943Z,13.54
2022-09-23T21:20:28.406Z,13.49
2022-09-23T21:22:54.899Z,13.48
2022-09-23T21:25:28.386Z,13.47
2022-09-23T21:27:55.555Z,13.47
2022-09-23T21:30:22.886Z,13.47
2022-09-23T21:32:49.335Z,13.48
2022-09-23T21:35:16.038Z,13.47
2022-09-23T21:37:42.466Z,13.47
2022-09-23T21:40:27.816Z,13.48
2022-09-23T21:42:58.926Z,13.47
2022-09-23T21:45:25.969Z,13.48
2022-09-23T21:47:52.739Z,13.49
2022-09-23T21:50:19.753Z,13.50
2022-09-23T21:52:46.425Z,13.46
2022-09-23T21:55:13.370Z,13.46
2022-09-23T21:57:39.874Z,13.50
2022-09-23T22:00:07.530Z,13.49
2022-09-23T22:02:34.386Z,13.53
2022-09-23T22:05:00.788Z,13.54
2022-09-23T22:07:27.233Z,13.54
2022-09-23T22:09:53.664Z,13.54
2022-09-23T22:12:20.097Z,13.55
2022-09-23T22:14:47.105Z,13.54
2022-09-23T22:17:16.116Z,13.52
2022-09-23T22:19:47.113Z,13.51
2022-09-23T22:22:15.213Z,13.50
2022-09-23T22:24:46.489Z,13.51
2022-09-23T22:27:14.282Z,13.48
2022-09-23T22:29:59.462Z,13.45
2022-09-23T22:32:40.857Z,13.38
2022-09-23T22:35:09.535Z,13.40
2022-09-23T22:37:36.698Z,13.34
2022-09-23T22:40:09.510Z,13.30
2022-09-23T22:42:36.445Z,13.25
2022-09-23T22:45:05.610Z,13.27
2022-09-23T22:47:37.554Z,13.28
2022-09-23T22:50:05.430Z,13.27
2022-09-23T22:52:33.258Z,13.27
2022-09-23T22:55:00.079Z,13.23
2022-09-23T22:57:26.588Z,13.26
2022-09-23T22:59:53.006Z,13.25
2022-09-23T23:02:21.343Z,13.26
2022-09-23T23:04:48.404Z,13.27
2022-09-23T23:07:20.278Z,13.29
2022-09-23T23:09:50.582Z,13.31
2022-09-23T23:12:19.797Z,13.28
2022-09-23T23:14:47.071Z,13.33
2022-09-23T23:17:14.854Z,13.32
2022-09-23T23:19:41.265Z,13.29
2022-09-23T23:22:07.689Z,13.32
2022-09-23T23:24:34.103Z,13.31
2022-09-23T23:27:00.541Z,13.34
2022-09-23T23:29:27.659Z,13.33
2022-09-23T23:31:54.262Z,13.36
2022-09-23T23:34:20.969Z,13.35
2022-09-23T23:36:53.339Z,13.33
2022-09-23T23:39:20.588Z,13.28
2022-09-23T23:41:48.650Z,13.32
2022-09-23T23:44:15.065Z,13.32
2022-09-23T23:46:41.509Z,13.33
2022-09-23T23:49:08.166Z,13.32
2022-09-23T23:51:34.577Z,13.30
2022-09-23T23:54:01.062Z,13.24
2022-09-23T23:56:27.846Z,13.20
2022-09-23T23:58:59.485Z,13.16
